createdAt,value
2022-09-24T00:01:16.431Z,12.75
2022-09-24T00:11:21.565Z,13.23
2022-09-24T00:31:25.593Z,10.00
2022-09-24T00:41:26.949Z,15.10
2022-09-24T00:51:28.143Z,12.85
2022-09-24T01:01:30.496Z,12.50
2022-09-24T01:11:31.807Z,9.73
2022-09-24T01:21:33.123Z,11.32
2022-09-24T01:31:34.706Z,13.10
2022-09-24T01:41:36.322Z,12.57
2022-09-24T01:51:38.208Z,13.07
2022-09-24T02:01:39.567Z,12.13
2022-09-24T02:11:41.507Z,16.30
2022-09-24T02:21:42.811Z,11.13
2022-09-24T02:31:44.212Z,10.23
2022-09-24T02:41:47.833Z,10.18
2022-09-24T02:51:49.153Z,11.80
2022-09-24T03:01:50.583Z,10.25
2022-09-24T03:11:52.456Z,11.43
2022-09-24T03:21:53.827Z,10.90
2022-09-24T03:31:55.177Z,9.43
2022-09-24T03:41:56.558Z,11.63
2022-09-24T03:51:57.909Z,11.05
2022-09-24T04:01:59.245Z,9.45
2022-09-24T04:12:00.651Z,11.18
2022-09-24T04:22:02.008Z,11.40
2022-09-24T04:32:03.559Z,9.73
2022-09-24T04:42:04.865Z,10.05
2022-09-24T04:52:06.176Z,11.93
2022-09-24T05:02:09.778Z,9.75
2022-09-24T05:12:11.475Z,8.32
2022-09-24T05:22:12.813Z,9.95
2022-09-24T05:32:15.265Z,11.13
2022-09-24T05:42:16.654Z,9.52
2022-09-24T05:52:17.967Z,9.70
2022-09-24T06:02:19.329Z,10.93
2022-09-24T06:12:23.634Z,9.18
2022-09-24T06:22:28.415Z,9.27
2022-09-24T06:32:30.268Z,8.55
2022-09-24T06:42:32.600Z,13.38
2022-09-24T06:52:33.919Z,9.57
2022-09-24T07:02:35.268Z,11.93
2022-09-24T07:12:36.934Z,8.75
2022-09-24T07:22:38.178Z,8.45
2022-09-24T07:32:39.378Z,9.18
2022-09-24T07:42:40.658Z,9.23
2022-09-24T07:52:42.001Z,8.55
2022-09-24T08:02:43.768Z,9.38
2022-09-24T08:12:45.067Z,8.30
2022-09-24T08:22:46.340Z,9.38
2022-09-24T08:32:50.284Z,11.52
2022-09-24T08:42:51.659Z,10.60
2022-09-24T08:52:54.312Z,9.88
2022-09-24T09:02:55.679Z,11.93
2022-09-24T09:12:57.052Z,8.85
2022-09-24T09:22:58.311Z,11.27
2022-09-24T09:32:59.620Z,10.57
2022-09-24T09:43:02.969Z,11.60
2022-09-24T09:53:05.060Z,9.45
2022-09-24T10:03:06.819Z,16.30
2022-09-24T10:13:09.034Z,12.32
2022-09-24T10:23:10.289Z,9.65
2022-09-24T10:33:11.604Z,7.60
2022-09-24T10:43:12.889Z,9.27
2022-09-24T10:53:14.167Z,10.38
2022-09-24T11:03:15.827Z,9.15
2022-09-24T11:13:17.395Z,9.45
2022-09-24T11:23:18.683Z,8.63
2022-09-24T11:33:23.034Z,8.68
2022-09-24T11:43:24.749Z,11.20
2022-09-24T11:53:26.008Z,10.00
2022-09-24T12:03:27.321Z,8.95
2022-09-24T12:13:28.627Z,6.80
2022-09-24T12:23:29.989Z,9.25
2022-09-24T12:33:31.458Z,9.10
2022-09-24T12:43:32.728Z,9.35
2022-09-24T12:53:34.328Z,6.93
2022-09-24T13:03:35.654Z,6.75
2022-09-24T13:13:36.940Z,6.47
2022-09-24T13:23:38.753Z,9.18
2022-09-24T13:33:40.023Z,9.00
2022-09-24T13:43:41.363Z,7.95
2022-09-24T13:53:42.647Z,6.50
2022-09-24T14:03:43.836Z,4.85
2022-09-24T14:13:46.119Z,5.78
2022-09-24T14:23:47.475Z,7.03
2022-09-24T14:33:48.914Z,6.53
2022-09-24T14:43:50.246Z,6.20
2022-09-24T14:53:51.443Z,7.32
2022-09-24T15:03:52.634Z,7.78
2022-09-24T15:13:54.049Z,6.30
2022-09-24T15:23:55.384Z,6.93
2022-09-24T15:33:56.656Z,6.60
2022-09-24T15:43:58.282Z,8.32
2022-09-24T15:53:59.567Z,6.07
2022-09-24T16:04:00.777Z,5.38
2022-09-24T16:14:01.970Z,6.28
2022-09-24T16:24:03.320Z,8.98
2022-09-24T16:34:04.587Z,10.57
2022-09-24T16:44:06.875Z,7.93
2022-09-24T16:54:08.169Z,8.10
2022-09-24T17:04:09.677Z,7.30
2022-09-24T17:14:13.762Z,8.57
2022-09-24T17:24:20.611Z,8.00
2022-09-24T17:34:23.080Z,7.85
2022-09-24T17:44:24.338Z,6.40
2022-09-24T17:54:26.901Z,12.60
2022-09-24T18:04:31.313Z,14.18
2022-09-24T18:14:32.746Z,9.70
2022-09-24T18:24:34.204Z,9.98
2022-09-24T18:34:35.539Z,11.52
2022-09-24T18:44:36.829Z,9.85
2022-09-24T18:54:38.317Z,12.25
2022-09-24T19:04:39.589Z,9.60
2022-09-24T19:14:41.637Z,12.57
2022-09-24T19:24:42.913Z,9.70
2022-09-24T19:34:44.221Z,9.38
2022-09-24T19:44:45.521Z,15.07
2022-09-24T19:54:51.222Z,9.32
2022-09-24T20:04:52.715Z,17.10
2022-09-24T20:14:54.018Z,13.63
2022-09-24T20:24:55.314Z,9.85
2022-09-24T20:34:56.648Z,10.35
2022-09-24T20:45:01.340Z,12.13
2022-09-24T20:55:07.245Z,12.52
2022-09-24T21:05:08.622Z,11.23
2022-09-24T21:15:10.397Z,12.35
2022-09-24T21:25:11.772Z,11.52
2022-09-24T21:35:13.074Z,12.43
2022-09-24T21:45:14.467Z,14.93
2022-09-24T21:55:15.764Z,13.32
2022-09-24T22:05:19.822Z,10.55
2022-09-24T22:15:22.871Z,14.63
2022-09-24T22:25:24.289Z,18.83
2022-09-24T22:35:44.189Z,14.45
2022-09-24T22:45:45.541Z,13.13
2022-09-24T22:55:50.497Z,15.82
2022-09-24T23:05:53.906Z,14.82
2022-09-24T23:15:55.647Z,13.93
2022-09-24T23:25:56.963Z,16.67
2022-09-24T23:35:58.239Z,14.32
2022-09-24T23:45:59.541Z,17.25
2022-09-24T23:56:00.883Z,13.85
